sensor_id;sensor_type;location;lat;lon;timestamp;P1;durP1;ratioP1;P2;durP2;ratioP2
26177;SDS011;13924;47.670;10.310;2023-08-17T00:00:40;5.8;;;4.0;;
26177;SDS011;13924;47.670;10.310;2023-08-17T00:15:40;5.4;;;4.6;;
26177;SDS011;13924;47.670;10.310;2023-08-17T00:30:39;7.3;;;6.6;;
26177;SDS011;13924;47.670;10.310;2023-08-17T00:45:40;5.1;;;4.4;;
26177;SDS011;13924;47.670;10.310;2023-08-17T01:00:42;6.6;;;4.7;;
26177;SDS011;13924;47.670;10.310;2023-08-17T01:01:26;4.9;;;4.5;;
26177;SDS011;13924;47.670;10.310;2023-08-17T01:15:43;5.4;;;3.9;;
26177;SDS011;13924;47.670;10.310;2023-08-17T01:30:44;7.1;;;3.8;;
26177;SDS011;13924;47.670;10.310;2023-08-17T01:45:42;5.9;;;3.7;;
26177;SDS011;13924;47.670;10.310;2023-08-17T02:00:44;8.2;;;3.9;;
26177;SDS011;13924;47.670;10.310;2023-08-17T02:15:44;4.9;;;4.2;;
26177;SDS011;13924;47.670;10.310;2023-08-17T02:30:48;5.4;;;4.4;;
26177;SDS011;13924;47.670;10.310;2023-08-17T02:45:45;5.6;;;3.9;;
26177;SDS011;13924;47.670;10.310;2023-08-17T03:00:51;7.2;;;4.1;;
26177;SDS011;13924;47.670;10.310;2023-08-17T03:15:47;6.1;;;4.5;;
26177;SDS011;13924;47.670;10.310;2023-08-17T03:30:48;6.9;;;4.1;;
26177;SDS011;13924;47.670;10.310;2023-08-17T03:45:47;4.0;;;3.6;;
26177;SDS011;13924;47.670;10.310;2023-08-17T04:00:50;4.5;;;3.9;;
26177;SDS011;13924;47.670;10.310;2023-08-17T04:06:04;6.2;;;4.1;;
26177;SDS011;13924;47.670;10.310;2023-08-17T04:21:01;5.9;;;3.8;;
26177;SDS011;13924;47.670;10.310;2023-08-17T04:36:01;6.3;;;3.9;;
26177;SDS011;13924;47.670;10.310;2023-08-17T04:51:03;9.0;;;4.1;;
26177;SDS011;13924;47.670;10.310;2023-08-17T05:06:03;4.8;;;3.9;;
26177;SDS011;13924;47.670;10.310;2023-08-17T05:21:04;5.6;;;4.1;;
26177;SDS011;13924;47.670;10.310;2023-08-17T05:36:04;4.3;;;3.9;;
26177;SDS011;13924;47.670;10.310;2023-08-17T05:51:05;8.1;;;4.2;;
26177;SDS011;13924;47.670;10.310;2023-08-17T06:06:05;3.5;;;3.2;;
26177;SDS011;13924;47.670;10.310;2023-08-17T06:21:06;5.2;;;3.9;;
26177;SDS011;13924;47.670;10.310;2023-08-17T06:36:06;7.1;;;3.9;;
26177;SDS011;13924;47.670;10.310;2023-08-17T06:51:08;4.2;;;3.8;;
26177;SDS011;13924;47.670;10.310;2023-08-17T07:06:09;5.8;;;3.3;;
26177;SDS011;13924;47.670;10.310;2023-08-17T07:21:09;4.2;;;3.7;;
26177;SDS011;13924;47.670;10.310;2023-08-17T07:36:14;8.6;;;4.4;;
26177;SDS011;13924;47.670;10.310;2023-08-17T07:51:10;6.9;;;3.8;;
26177;SDS011;13924;47.670;10.310;2023-08-17T08:06:11;5.0;;;3.9;;
26177;SDS011;13924;47.670;10.310;2023-08-17T08:21:11;8.9;;;4.9;;
26177;SDS011;13924;47.670;10.310;2023-08-17T08:36:11;4.7;;;3.8;;
26177;SDS011;13924;47.670;10.310;2023-08-17T08:51:12;7.4;;;3.8;;
26177;SDS011;13924;47.670;10.310;2023-08-17T09:06:14;3.8;;;3.3;;
26177;SDS011;13924;47.670;10.310;2023-08-17T09:21:20;3.8;;;3.5;;
26177;SDS011;13924;47.670;10.310;2023-08-17T09:36:14;4.3;;;3.4;;
26177;SDS011;13924;47.670;10.310;2023-08-17T09:51:15;3.6;;;3.0;;
26177;SDS011;13924;47.670;10.310;2023-08-17T10:06:17;3.1;;;2.8;;
26177;SDS011;13924;47.670;10.310;2023-08-17T10:21:17;5.3;;;3.3;;
26177;SDS011;13924;47.670;10.310;2023-08-17T10:36:17;4.1;;;3.6;;
26177;SDS011;13924;47.670;10.310;2023-08-17T10:51:17;4.7;;;3.4;;
26177;SDS011;13924;47.670;10.310;2023-08-17T11:06:19;4.2;;;3.4;;
26177;SDS011;13924;47.670;10.310;2023-08-17T11:21:19;7.9;;;3.9;;
26177;SDS011;13924;47.670;10.310;2023-08-17T11:36:20;4.5;;;3.4;;
26177;SDS011;13924;47.670;10.310;2023-08-17T11:51:28;3.8;;;3.2;;
26177;SDS011;13924;47.670;10.310;2023-08-17T12:06:24;3.5;;;2.8;;
26177;SDS011;13924;47.670;10.310;2023-08-17T12:21:25;4.3;;;2.3;;
26177;SDS011;13924;47.670;10.310;2023-08-17T12:36:22;4.1;;;2.3;;
26177;SDS011;13924;47.670;10.310;2023-08-17T12:51:23;3.7;;;2.8;;
26177;SDS011;13924;47.670;10.310;2023-08-17T13:06:23;4.7;;;3.1;;
26177;SDS011;13924;47.670;10.310;2023-08-17T13:21:24;6.0;;;3.0;;
26177;SDS011;13924;47.670;10.310;2023-08-17T13:36:26;4.3;;;3.4;;
26177;SDS011;13924;47.670;10.310;2023-08-17T13:51:29;6.7;;;4.6;;
26177;SDS011;13924;47.670;10.310;2023-08-17T14:06:26;6.4;;;4.7;;
26177;SDS011;13924;47.670;10.310;2023-08-17T14:21:26;5.9;;;4.4;;
26177;SDS011;13924;47.670;10.310;2023-08-17T14:36:27;9.2;;;5.4;;
26177;SDS011;13924;47.670;10.310;2023-08-17T14:51:28;7.8;;;5.1;;
26177;SDS011;13924;47.670;10.310;2023-08-17T15:06:28;9.5;;;8.6;;
26177;SDS011;13924;47.670;10.310;2023-08-17T15:21:29;6.1;;;4.3;;
26177;SDS011;13924;47.670;10.310;2023-08-17T15:36:29;8.1;;;4.3;;
26177;SDS011;13924;47.670;10.310;2023-08-17T15:51:30;8.8;;;5.5;;
26177;SDS011;13924;47.670;10.310;2023-08-17T16:06:31;6.5;;;4.8;;
26177;SDS011;13924;47.670;10.310;2023-08-17T16:21:31;10.3;;;5.3;;
26177;SDS011;13924;47.670;10.310;2023-08-17T16:36:32;9.7;;;4.6;;
26177;SDS011;13924;47.670;10.310;2023-08-17T16:51:32;9.7;;;6.8;;
26177;SDS011;13924;47.670;10.310;2023-08-17T17:06:33;9.2;;;5.9;;
26177;SDS011;13924;47.670;10.310;2023-08-17T17:21:33;8.9;;;6.2;;
26177;SDS011;13924;47.670;10.310;2023-08-17T17:36:34;11.8;;;6.6;;
26177;SDS011;13924;47.670;10.310;2023-08-17T17:51:35;8.5;;;6.5;;
26177;SDS011;13924;47.670;10.310;2023-08-17T18:06:35;8.1;;;5.6;;
26177;SDS011;13924;47.670;10.310;2023-08-17T18:21:36;6.2;;;4.9;;
26177;SDS011;13924;47.670;10.310;2023-08-17T18:36:36;8.0;;;4.9;;
26177;SDS011;13924;47.670;10.310;2023-08-17T18:51:37;7.6;;;5.6;;
26177;SDS011;13924;47.670;10.310;2023-08-17T19:06:40;5.4;;;4.8;;
26177;SDS011;13924;47.670;10.310;2023-08-17T19:21:38;5.0;;;3.7;;
26177;SDS011;13924;47.670;10.310;2023-08-17T19:36:38;4.4;;;3.0;;
26177;SDS011;13924;47.670;10.310;2023-08-17T19:51:43;5.5;;;3.3;;
26177;SDS011;13924;47.670;10.310;2023-08-17T20:06:40;5.3;;;3.9;;
26177;SDS011;13924;47.670;10.310;2023-08-17T20:21:41;4.4;;;3.6;;
26177;SDS011;13924;47.670;10.310;2023-08-17T20:36:41;6.7;;;4.1;;
26177;SDS011;13924;47.670;10.310;2023-08-17T20:51:43;3.9;;;3.4;;
26177;SDS011;13924;47.670;10.310;2023-08-17T21:06:43;4.0;;;3.6;;
26177;SDS011;13924;47.670;10.310;2023-08-17T21:21:43;4.6;;;3.5;;
26177;SDS011;13924;47.670;10.310;2023-08-17T21:36:44;5.0;;;3.3;;
26177;SDS011;13924;47.670;10.310;2023-08-17T21:51:45;5.9;;;3.8;;
26177;SDS011;13924;47.670;10.310;2023-08-17T22:00:33;5.0;;;3.9;;
26177;SDS011;13924;47.670;10.310;2023-08-17T22:15:32;4.8;;;4.1;;
26177;SDS011;13924;47.670;10.310;2023-08-17T22:30:32;4.4;;;3.9;;
26177;SDS011;13924;47.670;10.310;2023-08-17T22:45:33;4.4;;;3.4;;
26177;SDS011;13924;47.670;10.310;2023-08-17T23:00:33;4.4;;;3.4;;
26177;SDS011;13924;47.670;10.310;2023-08-17T23:15:34;7.1;;;3.2;;
26177;SDS011;13924;47.670;10.310;2023-08-17T23:30:36;6.3;;;3.2;;
26177;SDS011;13924;47.670;10.310;2023-08-17T23:45:36;6.6;;;4.2;;
